sensor_id;sensor_type;location;lat;lon;timestamp;temperature;humidity
33095;DHT22;19459;53.044;8.910;2024-03-17T00:01:06;4.40;99.90
33095;DHT22;19459;53.044;8.910;2024-03-17T00:03:32;4.40;99.90
33095;DHT22;19459;53.044;8.910;2024-03-17T00:05:59;4.40;99.90
33095;DHT22;19459;53.044;8.910;2024-03-17T00:08:26;4.30;99.90
33095;DHT22;19459;53.044;8.910;2024-03-17T00:10:54;4.30;99.90
33095;DHT22;19459;53.044;8.910;2024-03-17T00:13:20;4.30;99.90
33095;DHT22;19459;53.044;8.910;2024-03-17T00:15:50;4.20;99.90
33095;DHT22;19459;53.044;8.910;2024-03-17T00:18:18;4.30;99.90
33095;DHT22;19459;53.044;8.910;2024-03-17T00:20:44;4.20;99.90
33095;DHT22;19459;53.044;8.910;2024-03-17T00:23:10;4.20;99.90
33095;DHT22;19459;53.044;8.910;2024-03-17T00:25:38;4.20;99.90
33095;DHT22;19459;53.044;8.910;2024-03-17T00:28:04;4.20;99.90
33095;DHT22;19459;53.044;8.910;2024-03-17T00:30:30;4.20;99.90
33095;DHT22;19459;53.044;8.910;2024-03-17T00:32:59;4.10;99.90
33095;DHT22;19459;53.044;8.910;2024-03-17T00:35:25;4.20;99.90
33095;DHT22;19459;53.044;8.910;2024-03-17T00:37:51;4.10;99.90
33095;DHT22;19459;53.044;8.910;2024-03-17T00:40:19;4.20;99.90
33095;DHT22;19459;53.044;8.910;2024-03-17T00:42:45;4.10;99.90
33095;DHT22;19459;53.044;8.910;2024-03-17T00:45:11;4.10;99.90
33095;DHT22;19459;53.044;8.910;2024-03-17T00:47:37;4.10;99.90
33095;DHT22;19459;53.044;8.910;2024-03-17T00:50:04;4.00;99.90
33095;DHT22;19459;53.044;8.910;2024-03-17T00:52:32;4.00;99.90
33095;DHT22;19459;53.044;8.910;2024-03-17T00:54:58;4.00;99.90
33095;DHT22;19459;53.044;8.910;2024-03-17T00:57:24;4.00;99.90
33095;DHT22;19459;53.044;8.910;2024-03-17T00:59:50;4.00;99.90
33095;DHT22;19459;53.044;8.910;2024-03-17T01:02:18;4.00;99.90
33095;DHT22;19459;53.044;8.910;2024-03-17T01:04:44;4.00;99.90
33095;DHT22;19459;53.044;8.910;2024-03-17T01:07:11;4.00;99.90
33095;DHT22;19459;53.044;8.910;2024-03-17T01:09:38;3.90;99.90
33095;DHT22;19459;53.044;8.910;2024-03-17T01:12:04;3.90;99.90
33095;DHT22;19459;53.044;8.910;2024-03-17T01:14:31;3.90;99.90
33095;DHT22;19459;53.044;8.910;2024-03-17T01:16:59;3.90;99.90
33095;DHT22;19459;53.044;8.910;2024-03-17T01:19:25;3.80;99.90
33095;DHT22;19459;53.044;8.910;2024-03-17T01:21:52;3.80;99.90
33095;DHT22;19459;53.044;8.910;2024-03-17T01:24:18;3.80;99.90
33095;DHT22;19459;53.044;8.910;2024-03-17T01:26:44;3.70;99.90
33095;DHT22;19459;53.044;8.910;2024-03-17T01:29:11;3.70;99.90
33095;DHT22;19459;53.044;8.910;2024-03-17T01:31:36;3.70;99.90
33095;DHT22;19459;53.044;8.910;2024-03-17T01:34:02;3.70;99.90
33095;DHT22;19459;53.044;8.910;2024-03-17T01:36:28;3.60;99.90
33095;DHT22;19459;53.044;8.910;2024-03-17T01:38:54;3.60;99.90
33095;DHT22;19459;53.044;8.910;2024-03-17T01:41:20;3.60;99.90
33095;DHT22;19459;53.044;8.910;2024-03-17T01:43:46;3.60;99.90
33095;DHT22;19459;53.044;8.910;2024-03-17T01:46:15;3.60;99.90
33095;DHT22;19459;53.044;8.910;2024-03-17T01:48:42;3.60;99.90
33095;DHT22;19459;53.044;8.910;2024-03-17T01:51:10;3.60;99.90
33095;DHT22;19459;53.044;8.910;2024-03-17T01:53:37;3.60;99.90
33095;DHT22;19459;53.044;8.910;2024-03-17T01:56:05;3.50;99.90
33095;DHT22;19459;53.044;8.910;2024-03-17T01:58:31;3.50;99.90
33095;DHT22;19459;53.044;8.910;2024-03-17T02:01:00;3.50;99.90
33095;DHT22;19459;53.044;8.910;2024-03-17T02:03:25;3.50;99.90
33095;DHT22;19459;53.044;8.910;2024-03-17T02:05:51;3.40;99.90
33095;DHT22;19459;53.044;8.910;2024-03-17T02:08:17;3.40;99.90
33095;DHT22;19459;53.044;8.910;2024-03-17T02:10:44;3.40;99.90
33095;DHT22;19459;53.044;8.910;2024-03-17T02:13:10;3.30;99.90
33095;DHT22;19459;53.044;8.910;2024-03-17T02:15:36;3.30;99.90
33095;DHT22;19459;53.044;8.910;2024-03-17T02:18:02;3.30;99.90
33095;DHT22;19459;53.044;8.910;2024-03-17T02:20:28;3.20;99.90
33095;DHT22;19459;53.044;8.910;2024-03-17T02:23:12;3.20;99.90
33095;DHT22;19459;53.044;8.910;2024-03-17T02:25:38;3.20;99.90
33095;DHT22;19459;53.044;8.910;2024-03-17T02:28:05;3.20;99.90
33095;DHT22;19459;53.044;8.910;2024-03-17T02:30:31;3.20;99.90
33095;DHT22;19459;53.044;8.910;2024-03-17T02:32:57;3.10;99.90
33095;DHT22;19459;53.044;8.910;2024-03-17T02:35:24;3.10;99.90
33095;DHT22;19459;53.044;8.910;2024-03-17T02:37:50;3.10;99.90
33095;DHT22;19459;53.044;8.910;2024-03-17T02:40:16;3.10;99.90
33095;DHT22;19459;53.044;8.910;2024-03-17T02:42:43;3.10;99.90
33095;DHT22;19459;53.044;8.910;2024-03-17T02:45:10;3.00;99.90
33095;DHT22;19459;53.044;8.910;2024-03-17T02:47:38;3.00;99.90
33095;DHT22;19459;53.044;8.910;2024-03-17T02:50:04;3.00;99.90
33095;DHT22;19459;53.044;8.910;2024-03-17T02:52:31;2.90;99.90
33095;DHT22;19459;53.044;8.910;2024-03-17T02:54:56;2.90;99.90
33095;DHT22;19459;53.044;8.910;2024-03-17T02:57:23;2.90;99.90
33095;DHT22;19459;53.044;8.910;2024-03-17T02:59:54;2.90;99.90
33095;DHT22;19459;53.044;8.910;2024-03-17T03:02:21;2.80;99.90
33095;DHT22;19459;53.044;8.910;2024-03-17T03:04:47;2.80;99.90
33095;DHT22;19459;53.044;8.910;2024-03-17T03:07:12;2.80;99.90
33095;DHT22;19459;53.044;8.910;2024-03-17T03:09:38;2.80;99.90
33095;DHT22;19459;53.044;8.910;2024-03-17T03:12:04;2.70;99.90
33095;DHT22;19459;53.044;8.910;2024-03-17T03:14:33;2.70;99.90
33095;DHT22;19459;53.044;8.910;2024-03-17T03:16:59;2.70;99.90
33095;DHT22;19459;53.044;8.910;2024-03-17T03:19:26;2.70;99.90
33095;DHT22;19459;53.044;8.910;2024-03-17T03:21:52;2.70;99.90
33095;DHT22;19459;53.044;8.910;2024-03-17T03:24:18;2.70;99.90
33095;DHT22;19459;53.044;8.910;2024-03-17T03:26:44;2.60;99.90
33095;DHT22;19459;53.044;8.910;2024-03-17T03:29:12;2.60;99.90
33095;DHT22;19459;53.044;8.910;2024-03-17T03:31:40;2.50;99.90
33095;DHT22;19459;53.044;8.910;2024-03-17T03:34:07;2.50;99.90
33095;DHT22;19459;53.044;8.910;2024-03-17T03:36:38;2.50;99.90
33095;DHT22;19459;53.044;8.910;2024-03-17T03:39:04;2.50;99.90
33095;DHT22;19459;53.044;8.910;2024-03-17T03:41:30;2.60;99.90
33095;DHT22;19459;53.044;8.910;2024-03-17T03:44:00;2.60;99.90
33095;DHT22;19459;53.044;8.910;2024-03-17T03:46:26;2.70;99.90
33095;DHT22;19459;53.044;8.910;2024-03-17T03:48:52;2.70;99.90
33095;DHT22;19459;53.044;8.910;2024-03-17T03:51:18;2.70;99.90
33095;DHT22;19459;53.044;8.910;2024-03-17T03:53:44;2.70;99.90
33095;DHT22;19459;53.044;8.910;2024-03-17T03:56:10;2.80;99.90
33095;DHT22;19459;53.044;8.910;2024-03-17T03:58:39;2.80;99.90
33095;DHT22;19459;53.044;8.910;2024-03-17T04:01:06;2.80;99.90
33095;DHT22;19459;53.044;8.910;2024-03-17T04:03:34;2.80;99.90
33095;DHT22;19459;53.044;8.910;2024-03-17T04:06:04;2.80;99.90
33095;DHT22;19459;53.044;8.910;2024-03-17T04:08:31;2.80;99.90
33095;DHT22;19459;53.044;8.910;2024-03-17T04:10:58;2.90;99.90
33095;DHT22;19459;53.044;8.910;2024-03-17T04:13:24;2.90;99.90
33095;DHT22;19459;53.044;8.910;2024-03-17T04:15:50;2.90;99.90
33095;DHT22;19459;53.044;8.910;2024-03-17T04:18:21;3.00;99.90
33095;DHT22;19459;53.044;8.910;2024-03-17T04:20:46;3.00;99.90
33095;DHT22;19459;53.044;8.910;2024-03-17T04:23:12;3.10;99.90
33095;DHT22;19459;53.044;8.910;2024-03-17T04:25:39;3.00;99.90
33095;DHT22;19459;53.044;8.910;2024-03-17T04:28:07;3.10;99.90
33095;DHT22;19459;53.044;8.910;2024-03-17T04:30:32;3.10;99.90
33095;DHT22;19459;53.044;8.910;2024-03-17T04:32:58;3.10;99.90
33095;DHT22;19459;53.044;8.910;2024-03-17T04:35:24;3.10;99.90
33095;DHT22;19459;53.044;8.910;2024-03-17T04:37:49;3.20;99.90
33095;DHT22;19459;53.044;8.910;2024-03-17T04:40:15;3.20;99.90
33095;DHT22;19459;53.044;8.910;2024-03-17T04:42:41;3.20;99.90
33095;DHT22;19459;53.044;8.910;2024-03-17T04:45:07;3.30;99.90
33095;DHT22;19459;53.044;8.910;2024-03-17T04:47:35;3.30;99.90
33095;DHT22;19459;53.044;8.910;2024-03-17T04:50:01;3.30;99.90
33095;DHT22;19459;53.044;8.910;2024-03-17T04:52:26;3.40;99.90
33095;DHT22;19459;53.044;8.910;2024-03-17T04:54:52;3.30;99.90
33095;DHT22;19459;53.044;8.910;2024-03-17T04:57:18;3.30;99.90
33095;DHT22;19459;53.044;8.910;2024-03-17T04:59:43;3.40;99.90
33095;DHT22;19459;53.044;8.910;2024-03-17T05:02:09;3.40;99.90
33095;DHT22;19459;53.044;8.910;2024-03-17T05:04:35;3.40;99.90
33095;DHT22;19459;53.044;8.910;2024-03-17T05:07:01;3.40;99.90
33095;DHT22;19459;53.044;8.910;2024-03-17T05:09:27;3.40;99.90
33095;DHT22;19459;53.044;8.910;2024-03-17T05:11:53;3.40;99.90
33095;DHT22;19459;53.044;8.910;2024-03-17T05:14:19;3.40;99.90
33095;DHT22;19459;53.044;8.910;2024-03-17T05:16:48;3.50;99.90
33095;DHT22;19459;53.044;8.910;2024-03-17T05:19:17;3.50;99.90
33095;DHT22;19459;53.044;8.910;2024-03-17T05:21:46;3.50;99.90
33095;DHT22;19459;53.044;8.910;2024-03-17T05:24:12;3.50;99.90
33095;DHT22;19459;53.044;8.910;2024-03-17T05:26:38;3.60;99.90
33095;DHT22;19459;53.044;8.910;2024-03-17T05:29:04;3.50;99.90
33095;DHT22;19459;53.044;8.910;2024-03-17T05:31:30;3.60;99.90
33095;DHT22;19459;53.044;8.910;2024-03-17T05:33:57;3.60;99.90
33095;DHT22;19459;53.044;8.910;2024-03-17T05:36:22;3.60;99.90
33095;DHT22;19459;53.044;8.910;2024-03-17T05:38:48;3.60;99.90
33095;DHT22;19459;53.044;8.910;2024-03-17T05:41:14;3.50;99.90
33095;DHT22;19459;53.044;8.910;2024-03-17T05:43:40;3.60;99.90
33095;DHT22;19459;53.044;8.910;2024-03-17T05:46:10;3.60;99.90
33095;DHT22;19459;53.044;8.910;2024-03-17T05:48:41;3.60;99.90
33095;DHT22;19459;53.044;8.910;2024-03-17T05:51:08;3.60;99.90
33095;DHT22;19459;53.044;8.910;2024-03-17T05:53:35;3.60;99.90
33095;DHT22;19459;53.044;8.910;2024-03-17T05:56:02;3.70;99.90
33095;DHT22;19459;53.044;8.910;2024-03-17T05:58:29;3.70;99.90
33095;DHT22;19459;53.044;8.910;2024-03-17T06:00:55;3.70;99.90
33095;DHT22;19459;53.044;8.910;2024-03-17T06:03:21;3.70;99.90
33095;DHT22;19459;53.044;8.910;2024-03-17T06:05:47;3.70;99.90
33095;DHT22;19459;53.044;8.910;2024-03-17T06:08:14;3.80;99.90
33095;DHT22;19459;53.044;8.910;2024-03-17T06:10:47;3.70;99.90
33095;DHT22;19459;53.044;8.910;2024-03-17T06:13:14;3.60;99.90
33095;DHT22;19459;53.044;8.910;2024-03-17T06:15:45;3.70;99.90
33095;DHT22;19459;53.044;8.910;2024-03-17T06:18:13;3.70;99.90
33095;DHT22;19459;53.044;8.910;2024-03-17T06:20:47;3.70;99.90
33095;DHT22;19459;53.044;8.910;2024-03-17T06:23:14;3.70;99.90
33095;DHT22;19459;53.044;8.910;2024-03-17T06:25:43;3.70;99.90
33095;DHT22;19459;53.044;8.910;2024-03-17T06:28:15;3.70;99.90
33095;DHT22;19459;53.044;8.910;2024-03-17T06:30:46;3.70;99.90
33095;DHT22;19459;53.044;8.910;2024-03-17T06:33:19;3.80;99.90
33095;DHT22;19459;53.044;8.910;2024-03-17T06:35:46;3.80;99.90
33095;DHT22;19459;53.044;8.910;2024-03-17T06:38:13;3.90;99.90
33095;DHT22;19459;53.044;8.910;2024-03-17T06:40:40;3.90;99.90
33095;DHT22;19459;53.044;8.910;2024-03-17T06:43:07;4.00;99.90
33095;DHT22;19459;53.044;8.910;2024-03-17T06:45:33;4.00;99.90
33095;DHT22;19459;53.044;8.910;2024-03-17T06:47:59;4.10;99.90
33095;DHT22;19459;53.044;8.910;2024-03-17T06:50:25;4.10;99.90
33095;DHT22;19459;53.044;8.910;2024-03-17T06:52:51;4.20;99.90
33095;DHT22;19459;53.044;8.910;2024-03-17T06:55:18;4.30;99.90
33095;DHT22;19459;53.044;8.910;2024-03-17T06:57:46;4.40;99.90
33095;DHT22;19459;53.044;8.910;2024-03-17T07:00:13;4.40;99.90
33095;DHT22;19459;53.044;8.910;2024-03-17T07:02:40;4.50;99.90
33095;DHT22;19459;53.044;8.910;2024-03-17T07:05:11;4.50;99.90
33095;DHT22;19459;53.044;8.910;2024-03-17T07:07:44;4.50;99.90
33095;DHT22;19459;53.044;8.910;2024-03-17T07:10:10;4.50;99.90
33095;DHT22;19459;53.044;8.910;2024-03-17T07:12:38;4.60;99.90
33095;DHT22;19459;53.044;8.910;2024-03-17T07:15:05;4.60;99.90
33095;DHT22;19459;53.044;8.910;2024-03-17T07:17:31;4.70;99.90
33095;DHT22;19459;53.044;8.910;2024-03-17T07:19:59;4.70;99.90
33095;DHT22;19459;53.044;8.910;2024-03-17T07:22:25;4.80;99.90
33095;DHT22;19459;53.044;8.910;2024-03-17T07:24:52;4.80;99.90
33095;DHT22;19459;53.044;8.910;2024-03-17T07:27:25;4.90;99.90
33095;DHT22;19459;53.044;8.910;2024-03-17T07:29:52;4.90;99.90
33095;DHT22;19459;53.044;8.910;2024-03-17T07:32:17;4.90;99.90
33095;DHT22;19459;53.044;8.910;2024-03-17T07:34:43;5.00;99.90
33095;DHT22;19459;53.044;8.910;2024-03-17T07:37:09;5.10;99.90
33095;DHT22;19459;53.044;8.910;2024-03-17T07:39:35;5.10;99.90
33095;DHT22;19459;53.044;8.910;2024-03-17T07:42:01;5.20;99.90
33095;DHT22;19459;53.044;8.910;2024-03-17T07:44:30;5.40;99.90
33095;DHT22;19459;53.044;8.910;2024-03-17T07:47:03;5.40;99.90
33095;DHT22;19459;53.044;8.910;2024-03-17T07:49:30;5.60;99.90
33095;DHT22;19459;53.044;8.910;2024-03-17T07:51:56;5.80;99.90
33095;DHT22;19459;53.044;8.910;2024-03-17T07:54:26;6.00;99.90
33095;DHT22;19459;53.044;8.910;2024-03-17T07:56:52;6.10;99.90
33095;DHT22;19459;53.044;8.910;2024-03-17T07:59:18;6.30;99.90
33095;DHT22;19459;53.044;8.910;2024-03-17T08:01:45;6.40;99.90
33095;DHT22;19459;53.044;8.910;2024-03-17T08:04:11;6.50;99.90
33095;DHT22;19459;53.044;8.910;2024-03-17T08:06:39;6.60;99.90
33095;DHT22;19459;53.044;8.910;2024-03-17T08:09:06;6.80;99.90
33095;DHT22;19459;53.044;8.910;2024-03-17T08:11:33;6.90;99.90
33095;DHT22;19459;53.044;8.910;2024-03-17T08:14:00;7.00;99.90
33095;DHT22;19459;53.044;8.910;2024-03-17T08:16:27;7.10;99.90
33095;DHT22;19459;53.044;8.910;2024-03-17T08:18:54;7.20;99.90
33095;DHT22;19459;53.044;8.910;2024-03-17T08:21:21;7.40;99.90
33095;DHT22;19459;53.044;8.910;2024-03-17T08:23:46;7.70;99.90
33095;DHT22;19459;53.044;8.910;2024-03-17T08:26:12;8.00;99.90
33095;DHT22;19459;53.044;8.910;2024-03-17T08:28:38;8.00;99.90
33095;DHT22;19459;53.044;8.910;2024-03-17T08:31:04;8.10;99.90
33095;DHT22;19459;53.044;8.910;2024-03-17T08:33:31;8.10;99.90
33095;DHT22;19459;53.044;8.910;2024-03-17T08:36:03;8.30;99.90
33095;DHT22;19459;53.044;8.910;2024-03-17T08:38:31;8.40;99.90
33095;DHT22;19459;53.044;8.910;2024-03-17T08:41:05;8.70;99.90
33095;DHT22;19459;53.044;8.910;2024-03-17T08:43:33;8.70;99.90
33095;DHT22;19459;53.044;8.910;2024-03-17T08:46:04;8.60;99.90
33095;DHT22;19459;53.044;8.910;2024-03-17T08:48:33;8.60;99.90
33095;DHT22;19459;53.044;8.910;2024-03-17T08:51:00;8.40;99.90
33095;DHT22;19459;53.044;8.910;2024-03-17T08:53:27;8.70;99.90
33095;DHT22;19459;53.044;8.910;2024-03-17T08:55:54;8.80;99.90
33095;DHT22;19459;53.044;8.910;2024-03-17T08:58:20;8.90;99.90
33095;DHT22;19459;53.044;8.910;2024-03-17T09:00:46;8.90;99.90
33095;DHT22;19459;53.044;8.910;2024-03-17T09:03:12;8.80;99.90
33095;DHT22;19459;53.044;8.910;2024-03-17T09:05:39;8.80;99.90
33095;DHT22;19459;53.044;8.910;2024-03-17T09:08:23;8.90;99.90
33095;DHT22;19459;53.044;8.910;2024-03-17T09:10:53;8.60;99.90
33095;DHT22;19459;53.044;8.910;2024-03-17T09:13:23;8.80;99.90
33095;DHT22;19459;53.044;8.910;2024-03-17T09:15:59;8.70;99.90
33095;DHT22;19459;53.044;8.910;2024-03-17T09:18:25;8.50;99.90
33095;DHT22;19459;53.044;8.910;2024-03-17T09:21:03;8.70;99.90
33095;DHT22;19459;53.044;8.910;2024-03-17T09:23:33;8.70;99.90
33095;DHT22;19459;53.044;8.910;2024-03-17T09:26:06;8.90;99.90
33095;DHT22;19459;53.044;8.910;2024-03-17T09:28:38;9.30;99.90
33095;DHT22;19459;53.044;8.910;2024-03-17T09:31:04;9.60;99.90
33095;DHT22;19459;53.044;8.910;2024-03-17T09:33:34;9.50;99.90
33095;DHT22;19459;53.044;8.910;2024-03-17T09:36:05;10.10;99.90
33095;DHT22;19459;53.044;8.910;2024-03-17T09:38:32;10.30;99.90
33095;DHT22;19459;53.044;8.910;2024-03-17T09:40:59;10.30;99.90
33095;DHT22;19459;53.044;8.910;2024-03-17T09:43:36;10.40;99.90
33095;DHT22;19459;53.044;8.910;2024-03-17T09:46:03;10.50;99.90
33095;DHT22;19459;53.044;8.910;2024-03-17T09:48:29;11.00;99.90
33095;DHT22;19459;53.044;8.910;2024-03-17T09:50:59;10.80;99.90
33095;DHT22;19459;53.044;8.910;2024-03-17T09:53:30;10.80;99.90
33095;DHT22;19459;53.044;8.910;2024-03-17T09:56:12;10.90;99.90
33095;DHT22;19459;53.044;8.910;2024-03-17T09:58:40;10.90;99.90
33095;DHT22;19459;53.044;8.910;2024-03-17T10:01:07;10.90;99.90
33095;DHT22;19459;53.044;8.910;2024-03-17T10:03:59;11.10;99.90
33095;DHT22;19459;53.044;8.910;2024-03-17T10:06:29;11.50;99.90
33095;DHT22;19459;53.044;8.910;2024-03-17T10:09:00;11.70;99.90
33095;DHT22;19459;53.044;8.910;2024-03-17T10:11:36;11.90;99.90
33095;DHT22;19459;53.044;8.910;2024-03-17T10:14:07;11.90;99.90
33095;DHT22;19459;53.044;8.910;2024-03-17T10:16:38;11.60;99.90
33095;DHT22;19459;53.044;8.910;2024-03-17T10:21:38;11.20;99.90
33095;DHT22;19459;53.044;8.910;2024-03-17T10:24:24;11.50;99.90
33095;DHT22;19459;53.044;8.910;2024-03-17T10:26:52;12.30;99.90
33095;DHT22;19459;53.044;8.910;2024-03-17T10:29:32;12.80;99.90
33095;DHT22;19459;53.044;8.910;2024-03-17T10:32:02;13.00;99.90
33095;DHT22;19459;53.044;8.910;2024-03-17T10:34:50;13.40;99.90
33095;DHT22;19459;53.044;8.910;2024-03-17T10:37:18;13.70;99.90
33095;DHT22;19459;53.044;8.910;2024-03-17T10:39:52;13.70;99.90
33095;DHT22;19459;53.044;8.910;2024-03-17T10:42:26;13.90;99.90
33095;DHT22;19459;53.044;8.910;2024-03-17T10:45:01;13.30;99.90
33095;DHT22;19459;53.044;8.910;2024-03-17T10:47:36;13.80;99.90
33095;DHT22;19459;53.044;8.910;2024-03-17T10:50:03;13.50;99.90
33095;DHT22;19459;53.044;8.910;2024-03-17T10:52:36;13.70;99.90
33095;DHT22;19459;53.044;8.910;2024-03-17T10:55:08;13.20;99.90
33095;DHT22;19459;53.044;8.910;2024-03-17T11:00:02;12.70;99.90
33095;DHT22;19459;53.044;8.910;2024-03-17T11:02:31;12.80;99.90
33095;DHT22;19459;53.044;8.910;2024-03-17T11:05:19;13.20;99.90
33095;DHT22;19459;53.044;8.910;2024-03-17T11:07:50;13.80;99.90
33095;DHT22;19459;53.044;8.910;2024-03-17T11:10:21;13.70;99.90
33095;DHT22;19459;53.044;8.910;2024-03-17T11:12:49;14.30;99.90
33095;DHT22;19459;53.044;8.910;2024-03-17T11:17:49;13.20;99.90
33095;DHT22;19459;53.044;8.910;2024-03-17T11:20:21;13.20;99.90
33095;DHT22;19459;53.044;8.910;2024-03-17T11:23:07;13.50;99.90
33095;DHT22;19459;53.044;8.910;2024-03-17T11:25:38;13.60;99.90
33095;DHT22;19459;53.044;8.910;2024-03-17T11:28:07;14.10;99.90
33095;DHT22;19459;53.044;8.910;2024-03-17T11:41:39;14.50;99.90
33095;DHT22;19459;53.044;8.910;2024-03-17T11:46:58;13.00;99.90
33095;DHT22;19459;53.044;8.910;2024-03-17T11:49:29;12.40;99.90
33095;DHT22;19459;53.044;8.910;2024-03-17T11:52:01;12.70;99.90
33095;DHT22;19459;53.044;8.910;2024-03-17T11:54:34;12.90;99.90
33095;DHT22;19459;53.044;8.910;2024-03-17T11:57:03;13.10;99.90
33095;DHT22;19459;53.044;8.910;2024-03-17T11:59:33;13.00;99.90
33095;DHT22;19459;53.044;8.910;2024-03-17T12:02:00;12.60;99.90
33095;DHT22;19459;53.044;8.910;2024-03-17T12:04:27;12.50;99.90
33095;DHT22;19459;53.044;8.910;2024-03-17T12:06:59;12.40;99.90
33095;DHT22;19459;53.044;8.910;2024-03-17T12:09:26;12.30;99.90
33095;DHT22;19459;53.044;8.910;2024-03-17T12:12:04;12.40;99.90
33095;DHT22;19459;53.044;8.910;2024-03-17T12:15:00;12.30;99.90
33095;DHT22;19459;53.044;8.910;2024-03-17T12:17:28;12.80;99.90
33095;DHT22;19459;53.044;8.910;2024-03-17T12:19:54;13.00;99.90
33095;DHT22;19459;53.044;8.910;2024-03-17T12:22:24;12.90;99.90
33095;DHT22;19459;53.044;8.910;2024-03-17T12:24:53;13.20;99.90
33095;DHT22;19459;53.044;8.910;2024-03-17T12:27:23;13.40;99.90
33095;DHT22;19459;53.044;8.910;2024-03-17T12:29:51;13.30;99.90
33095;DHT22;19459;53.044;8.910;2024-03-17T12:32:25;12.80;99.90
33095;DHT22;19459;53.044;8.910;2024-03-17T12:34:55;12.40;99.90
33095;DHT22;19459;53.044;8.910;2024-03-17T12:37:27;12.40;99.90
33095;DHT22;19459;53.044;8.910;2024-03-17T12:40:02;12.70;99.90
33095;DHT22;19459;53.044;8.910;2024-03-17T12:42:29;12.80;99.90
33095;DHT22;19459;53.044;8.910;2024-03-17T12:47:27;12.90;99.90
33095;DHT22;19459;53.044;8.910;2024-03-17T12:49:58;13.40;99.90
33095;DHT22;19459;53.044;8.910;2024-03-17T12:52:29;13.90;99.90
33095;DHT22;19459;53.044;8.910;2024-03-17T12:55:06;13.40;99.90
33095;DHT22;19459;53.044;8.910;2024-03-17T12:58:04;13.10;99.90
33095;DHT22;19459;53.044;8.910;2024-03-17T13:01:00;12.80;99.90
33095;DHT22;19459;53.044;8.910;2024-03-17T13:03:29;13.40;99.90
33095;DHT22;19459;53.044;8.910;2024-03-17T13:05:58;13.70;99.90
33095;DHT22;19459;53.044;8.910;2024-03-17T13:08:25;13.80;99.90
33095;DHT22;19459;53.044;8.910;2024-03-17T13:10:51;13.80;99.90
33095;DHT22;19459;53.044;8.910;2024-03-17T13:13:17;13.90;99.90
33095;DHT22;19459;53.044;8.910;2024-03-17T13:15:43;13.60;99.90
33095;DHT22;19459;53.044;8.910;2024-03-17T13:18:16;12.80;99.90
33095;DHT22;19459;53.044;8.910;2024-03-17T13:20:48;12.90;99.90
33095;DHT22;19459;53.044;8.910;2024-03-17T13:23:23;13.20;99.90
33095;DHT22;19459;53.044;8.910;2024-03-17T13:25:51;13.60;99.90
33095;DHT22;19459;53.044;8.910;2024-03-17T13:28:17;13.80;99.90
33095;DHT22;19459;53.044;8.910;2024-03-17T13:30:43;13.90;99.90
33095;DHT22;19459;53.044;8.910;2024-03-17T13:33:10;14.40;99.90
33095;DHT22;19459;53.044;8.910;2024-03-17T13:35:38;15.10;99.90
33095;DHT22;19459;53.044;8.910;2024-03-17T13:38:09;15.80;99.90
33095;DHT22;19459;53.044;8.910;2024-03-17T13:40:39;15.30;97.50
33095;DHT22;19459;53.044;8.910;2024-03-17T13:43:06;15.30;98.90
33095;DHT22;19459;53.044;8.910;2024-03-17T13:45:39;14.90;98.10
33095;DHT22;19459;53.044;8.910;2024-03-17T13:48:06;14.70;97.70
33095;DHT22;19459;53.044;8.910;2024-03-17T13:50:36;14.20;98.80
33095;DHT22;19459;53.044;8.910;2024-03-17T13:53:03;14.30;99.00
33095;DHT22;19459;53.044;8.910;2024-03-17T13:55:29;14.50;99.90
33095;DHT22;19459;53.044;8.910;2024-03-17T13:57:57;14.50;99.40
33095;DHT22;19459;53.044;8.910;2024-03-17T14:00:25;14.60;99.30
33095;DHT22;19459;53.044;8.910;2024-03-17T14:02:53;14.60;99.60
33095;DHT22;19459;53.044;8.910;2024-03-17T14:05:22;14.20;99.30
33095;DHT22;19459;53.044;8.910;2024-03-17T14:07:49;14.20;99.10
33095;DHT22;19459;53.044;8.910;2024-03-17T14:10:17;13.90;98.50
33095;DHT22;19459;53.044;8.910;2024-03-17T14:12:44;13.40;99.70
33095;DHT22;19459;53.044;8.910;2024-03-17T14:15:12;13.70;99.90
33095;DHT22;19459;53.044;8.910;2024-03-17T14:17:43;13.80;99.70
33095;DHT22;19459;53.044;8.910;2024-03-17T14:20:10;13.60;99.70
33095;DHT22;19459;53.044;8.910;2024-03-17T14:22:41;13.50;99.90
33095;DHT22;19459;53.044;8.910;2024-03-17T14:25:09;13.60;99.90
33095;DHT22;19459;53.044;8.910;2024-03-17T14:27:42;13.90;99.90
33095;DHT22;19459;53.044;8.910;2024-03-17T14:30:08;14.20;99.90
33095;DHT22;19459;53.044;8.910;2024-03-17T14:32:40;14.20;99.90
33095;DHT22;19459;53.044;8.910;2024-03-17T14:35:06;14.20;99.90
33095;DHT22;19459;53.044;8.910;2024-03-17T14:37:32;14.00;99.80
33095;DHT22;19459;53.044;8.910;2024-03-17T14:39:58;13.90;99.70
33095;DHT22;19459;53.044;8.910;2024-03-17T14:42:25;13.90;99.60
33095;DHT22;19459;53.044;8.910;2024-03-17T14:44:51;13.90;99.80
33095;DHT22;19459;53.044;8.910;2024-03-17T14:47:16;13.90;99.90
33095;DHT22;19459;53.044;8.910;2024-03-17T14:49:43;13.80;99.90
33095;DHT22;19459;53.044;8.910;2024-03-17T14:52:11;13.40;99.50
33095;DHT22;19459;53.044;8.910;2024-03-17T14:54:36;13.00;99.80
33095;DHT22;19459;53.044;8.910;2024-03-17T14:57:02;12.90;99.90
33095;DHT22;19459;53.044;8.910;2024-03-17T14:59:28;13.10;99.90
33095;DHT22;19459;53.044;8.910;2024-03-17T15:01:54;13.00;99.90
33095;DHT22;19459;53.044;8.910;2024-03-17T15:04:20;13.00;99.90
33095;DHT22;19459;53.044;8.910;2024-03-17T15:06:46;12.80;99.90
33095;DHT22;19459;53.044;8.910;2024-03-17T15:09:12;12.90;99.90
33095;DHT22;19459;53.044;8.910;2024-03-17T15:11:38;12.90;99.90
33095;DHT22;19459;53.044;8.910;2024-03-17T15:14:04;12.90;99.90
33095;DHT22;19459;53.044;8.910;2024-03-17T15:16:36;12.60;99.90
33095;DHT22;19459;53.044;8.910;2024-03-17T15:19:04;12.50;99.90
33095;DHT22;19459;53.044;8.910;2024-03-17T15:21:31;12.50;99.90
33095;DHT22;19459;53.044;8.910;2024-03-17T15:23:57;12.50;99.90
33095;DHT22;19459;53.044;8.910;2024-03-17T15:26:23;12.50;99.90
33095;DHT22;19459;53.044;8.910;2024-03-17T15:28:49;12.40;99.90
33095;DHT22;19459;53.044;8.910;2024-03-17T15:31:16;12.60;99.90
33095;DHT22;19459;53.044;8.910;2024-03-17T15:33:43;12.40;99.90
33095;DHT22;19459;53.044;8.910;2024-03-17T15:36:09;12.30;99.90
33095;DHT22;19459;53.044;8.910;2024-03-17T15:38:37;12.10;99.90
33095;DHT22;19459;53.044;8.910;2024-03-17T15:41:08;11.90;99.90
33095;DHT22;19459;53.044;8.910;2024-03-17T15:43:37;11.90;99.90
33095;DHT22;19459;53.044;8.910;2024-03-17T15:46:20;11.80;99.90
33095;DHT22;19459;53.044;8.910;2024-03-17T15:48:48;11.80;99.90
33095;DHT22;19459;53.044;8.910;2024-03-17T15:51:15;11.80;99.90
33095;DHT22;19459;53.044;8.910;2024-03-17T15:53:43;11.80;99.90
33095;DHT22;19459;53.044;8.910;2024-03-17T15:56:09;11.80;99.90
33095;DHT22;19459;53.044;8.910;2024-03-17T15:58:36;11.80;99.90
33095;DHT22;19459;53.044;8.910;2024-03-17T16:01:06;11.90;99.90
33095;DHT22;19459;53.044;8.910;2024-03-17T16:03:39;11.80;99.90
33095;DHT22;19459;53.044;8.910;2024-03-17T16:06:13;11.80;99.90
33095;DHT22;19459;53.044;8.910;2024-03-17T16:08:44;11.80;99.90
33095;DHT22;19459;53.044;8.910;2024-03-17T16:11:12;11.80;99.90